createdAt,value
2022-11-28T00:01:19.351Z,9.88
2022-11-28T00:04:25.279Z,9.82
2022-11-28T00:07:29.223Z,10.32
2022-11-28T00:10:33.425Z,9.50
2022-11-28T00:13:38.150Z,10.23
2022-11-28T00:16:42.345Z,10.75
2022-11-28T00:19:46.594Z,10.88
2022-11-28T00:22:52.170Z,10.05
2022-11-28T00:26:01.471Z,10.50
2022-11-28T00:29:05.722Z,10.68
2022-11-28T00:32:10.143Z,10.45
2022-11-28T00:35:14.512Z,9.77
2022-11-28T00:38:18.765Z,10.43
2022-11-28T00:41:26.284Z,10.10
2022-11-28T00:44:30.434Z,10.00
2022-11-28T00:47:34.140Z,10.05
2022-11-28T00:50:38.256Z,10.18
2022-11-28T00:53:44.586Z,10.13
2022-11-28T00:56:48.638Z,9.88
2022-11-28T00:59:52.730Z,11.27
2022-11-28T01:02:56.693Z,9.95
2022-11-28T01:06:02.953Z,10.38
2022-11-28T01:09:10.717Z,9.73
2022-11-28T01:12:14.554Z,10.02
2022-11-28T01:15:18.836Z,10.40
2022-11-28T01:18:23.027Z,10.60
2022-11-28T01:21:27.343Z,9.85
2022-11-28T01:24:31.400Z,10.70
2022-11-28T01:27:35.471Z,9.30
2022-11-28T01:30:39.697Z,9.95
2022-11-28T01:33:43.919Z,9.32
2022-11-28T01:36:48.197Z,9.55
2022-11-28T01:39:52.432Z,10.00
2022-11-28T01:42:56.555Z,9.50
2022-11-28T01:46:01.291Z,9.57
2022-11-28T01:49:09.297Z,9.40
2022-11-28T01:52:16.783Z,9.05
2022-11-28T01:55:24.489Z,9.23
2022-11-28T01:58:30.828Z,9.43
2022-11-28T02:01:34.852Z,9.23
2022-11-28T02:04:39.266Z,9.15
2022-11-28T02:07:44.538Z,8.93
2022-11-28T02:11:16.893Z,8.98
2022-11-28T02:14:30.765Z,8.27
2022-11-28T02:17:56.515Z,9.10
2022-11-28T02:21:29.297Z,8.55
2022-11-28T02:25:17.510Z,8.50
2022-11-28T02:28:29.617Z,9.27
2022-11-28T02:31:43.021Z,8.10
2022-11-28T02:34:53.075Z,8.05
2022-11-28T02:38:29.065Z,7.82
2022-11-28T02:41:57.837Z,8.32
2022-11-28T02:45:10.963Z,8.38
2022-11-28T02:48:47.231Z,8.73
2022-11-28T02:52:03.278Z,8.45
2022-11-28T02:55:08.551Z,7.82
2022-11-28T02:58:13.128Z,8.65
2022-11-28T03:01:25.674Z,8.70
2022-11-28T03:04:36.106Z,8.43
2022-11-28T03:07:58.155Z,7.75
2022-11-28T03:11:32.985Z,7.60
2022-11-28T03:14:50.824Z,7.80
2022-11-28T03:18:06.760Z,6.90
2022-11-28T03:21:15.053Z,7.30
2022-11-28T03:24:27.876Z,7.03
2022-11-28T03:27:37.890Z,7.30
2022-11-28T03:30:49.019Z,7.30
2022-11-28T03:33:59.567Z,7.25
2022-11-28T03:37:09.958Z,7.85
2022-11-28T03:40:20.462Z,7.38
2022-11-28T03:43:34.553Z,6.85
2022-11-28T03:46:44.697Z,6.68
2022-11-28T03:49:52.982Z,6.95
2022-11-28T03:53:03.058Z,7.05
2022-11-28T03:56:17.600Z,6.55
2022-11-28T03:59:47.968Z,6.70
2022-11-28T04:03:10.856Z,7.22
2022-11-28T04:06:21.479Z,6.65
2022-11-28T04:09:42.088Z,7.38
2022-11-28T04:13:20.061Z,7.15
2022-11-28T04:16:53.442Z,6.95
2022-11-28T04:20:27.002Z,6.45
2022-11-28T04:23:32.874Z,7.00
2022-11-28T04:26:43.632Z,5.80
2022-11-28T04:29:51.236Z,6.28
2022-11-28T04:33:01.468Z,6.18
2022-11-28T04:36:07.546Z,6.32
2022-11-28T04:39:18.244Z,5.95
2022-11-28T04:42:42.407Z,6.45
2022-11-28T04:45:52.518Z,6.50
2022-11-28T04:48:56.912Z,6.40
2022-11-28T04:52:14.919Z,6.18
2022-11-28T04:55:43.598Z,6.18
2022-11-28T04:58:50.141Z,6.30
2022-11-28T05:01:55.818Z,5.20
2022-11-28T05:05:00.051Z,5.60
2022-11-28T05:08:04.166Z,5.65
2022-11-28T05:11:08.052Z,6.00
2022-11-28T05:14:12.001Z,5.20
2022-11-28T05:17:16.191Z,6.32
2022-11-28T05:20:20.669Z,5.70
2022-11-28T05:23:24.931Z,6.00
2022-11-28T05:26:32.170Z,6.18
2022-11-28T05:29:36.200Z,5.70
2022-11-28T05:32:40.658Z,5.90
2022-11-28T05:35:44.839Z,5.85
2022-11-28T05:38:48.782Z,5.68
2022-11-28T05:41:55.231Z,5.50
2022-11-28T05:44:58.994Z,6.05
2022-11-28T05:48:02.787Z,5.28
2022-11-28T05:51:07.597Z,6.13
2022-11-28T05:54:11.951Z,5.72
2022-11-28T05:57:15.823Z,5.60
2022-11-28T06:00:20.438Z,5.78
2022-11-28T06:03:24.506Z,5.93
2022-11-28T06:06:31.292Z,5.85
2022-11-28T06:09:35.684Z,5.55
2022-11-28T06:12:39.994Z,5.63
2022-11-28T06:15:45.055Z,5.25
2022-11-28T06:18:52.589Z,6.15
2022-11-28T06:21:56.822Z,5.50
2022-11-28T06:25:00.997Z,5.88
2022-11-28T06:28:05.277Z,5.55
2022-11-28T06:31:18.198Z,5.05
2022-11-28T06:34:22.927Z,5.40
2022-11-28T06:37:28.186Z,5.55
2022-11-28T06:40:32.413Z,5.68
2022-11-28T06:43:37.400Z,5.82
2022-11-28T06:46:41.512Z,5.85
2022-11-28T06:49:45.807Z,6.70
2022-11-28T06:52:49.811Z,5.13
2022-11-28T06:55:53.721Z,5.95
2022-11-28T06:59:00.114Z,4.85
2022-11-28T07:02:07.408Z,5.70
2022-11-28T07:05:12.105Z,5.47
2022-11-28T07:08:16.174Z,5.53
2022-11-28T07:11:23.447Z,4.95
2022-11-28T07:14:27.492Z,4.97
2022-11-28T07:17:31.826Z,5.43
2022-11-28T07:20:36.115Z,5.72
2022-11-28T07:23:40.291Z,5.53
2022-11-28T07:26:45.781Z,5.85
2022-11-28T07:29:50.145Z,5.85
2022-11-28T07:32:54.409Z,5.68
2022-11-28T07:36:04.508Z,5.35
2022-11-28T07:39:13.621Z,5.75
2022-11-28T07:42:17.985Z,5.47
2022-11-28T07:45:22.999Z,5.43
2022-11-28T07:48:27.001Z,6.75
2022-11-28T07:51:33.414Z,6.70
2022-11-28T07:54:37.509Z,6.13
2022-11-28T07:57:41.675Z,6.28
2022-11-28T08:00:45.529Z,6.75
2022-11-28T08:03:50.113Z,6.90
2022-11-28T08:06:54.238Z,6.47
2022-11-28T08:09:57.948Z,7.00
2022-11-28T08:13:02.216Z,6.75
2022-11-28T08:16:09.161Z,7.30
2022-11-28T08:19:13.947Z,6.90
2022-11-28T08:22:18.150Z,7.38
2022-11-28T08:25:21.927Z,8.00
2022-11-28T08:28:26.204Z,7.68
2022-11-28T08:31:36.173Z,8.00
2022-11-28T08:34:40.600Z,8.43
2022-11-28T08:37:44.851Z,7.82
2022-11-28T08:40:48.969Z,8.00
2022-11-28T08:43:52.751Z,8.93
2022-11-28T08:46:57.207Z,8.85
2022-11-28T08:50:01.400Z,9.13
2022-11-28T08:53:08.502Z,9.25
2022-11-28T08:56:13.126Z,9.07
2022-11-28T08:59:17.121Z,9.07
2022-11-28T09:02:25.763Z,8.70
2022-11-28T09:05:30.765Z,9.45
2022-11-28T09:08:34.528Z,8.45
2022-11-28T09:11:38.776Z,9.70
2022-11-28T09:14:42.793Z,9.43
2022-11-28T09:17:46.858Z,9.38
2022-11-28T09:20:50.898Z,9.18
2022-11-28T09:23:56.045Z,9.05
2022-11-28T09:26:59.982Z,9.73
2022-11-28T09:30:04.807Z,10.50
2022-11-28T09:33:09.652Z,9.85
2022-11-28T09:36:16.057Z,10.57
2022-11-28T09:39:20.174Z,9.88
2022-11-28T09:42:32.051Z,11.18
2022-11-28T09:45:36.359Z,10.77
2022-11-28T09:48:46.707Z,9.95
2022-11-28T09:51:57.875Z,10.05
2022-11-28T09:55:12.964Z,9.55
2022-11-28T09:58:27.258Z,10.18
2022-11-28T10:01:40.521Z,10.50
2022-11-28T10:04:49.407Z,10.30
2022-11-28T10:08:03.086Z,11.57
2022-11-28T10:11:26.789Z,9.73
2022-11-28T10:14:53.581Z,9.85
2022-11-28T10:18:36.485Z,10.38
2022-11-28T10:21:52.916Z,9.95
2022-11-28T10:25:06.232Z,9.63
2022-11-28T10:28:17.606Z,10.23
2022-11-28T10:31:36.632Z,9.60
2022-11-28T10:34:53.668Z,10.05
2022-11-28T10:37:57.674Z,10.25
2022-11-28T10:41:14.310Z,9.63
2022-11-28T10:44:26.338Z,10.18
2022-11-28T10:47:52.390Z,10.85
2022-11-28T10:51:08.207Z,10.45
2022-11-28T10:54:30.931Z,10.77
2022-11-28T10:57:45.696Z,10.43
2022-11-28T11:00:53.720Z,10.27
2022-11-28T11:03:57.852Z,11.38
2022-11-28T11:07:22.732Z,10.15
2022-11-28T11:10:49.566Z,10.45
2022-11-28T11:14:13.924Z,10.50
2022-11-28T11:17:36.233Z,10.30
2022-11-28T11:20:40.917Z,9.77
2022-11-28T11:23:46.240Z,10.07
2022-11-28T11:26:51.095Z,10.77
2022-11-28T11:29:55.748Z,10.77
2022-11-28T11:33:01.421Z,9.95
2022-11-28T11:36:21.571Z,10.38
2022-11-28T11:39:26.203Z,10.60
2022-11-28T11:42:32.913Z,10.40
2022-11-28T11:45:37.268Z,9.95
2022-11-28T11:48:44.384Z,11.10
2022-11-28T11:51:56.395Z,10.55
2022-11-28T11:55:13.416Z,11.07
2022-11-28T11:58:25.449Z,10.45
2022-11-28T12:01:31.921Z,11.00
2022-11-28T12:04:47.047Z,12.13
2022-11-28T12:08:09.851Z,10.35
2022-11-28T12:11:25.655Z,10.27
2022-11-28T12:14:35.051Z,10.02
2022-11-28T12:18:08.383Z,10.10
2022-11-28T12:21:16.066Z,11.52
2022-11-28T12:24:30.708Z,10.60
2022-11-28T12:27:56.442Z,9.75
2022-11-28T12:31:29.046Z,10.10
2022-11-28T12:34:49.742Z,9.35
2022-11-28T12:38:12.646Z,9.60
2022-11-28T12:41:37.944Z,9.90
2022-11-28T12:45:00.539Z,9.88
2022-11-28T12:48:29.024Z,9.77
2022-11-28T12:51:42.003Z,9.85
2022-11-28T12:54:57.188Z,9.52
2022-11-28T12:58:16.448Z,8.98
2022-11-28T13:01:29.670Z,9.50
2022-11-28T13:05:05.030Z,9.00
2022-11-28T13:08:27.851Z,9.55
2022-11-28T13:12:17.873Z,8.75
2022-11-28T13:15:40.963Z,10.13
2022-11-28T13:19:00.444Z,9.73
2022-11-28T13:22:23.288Z,8.32
2022-11-28T13:25:43.396Z,8.35
2022-11-28T13:28:51.264Z,8.13
2022-11-28T13:32:09.313Z,8.63
2022-11-28T13:35:15.448Z,8.50
2022-11-28T13:39:08.143Z,8.20
2022-11-28T13:42:44.247Z,7.75
2022-11-28T13:45:47.410Z,8.52
2022-11-28T13:49:13.860Z,7.50
2022-11-28T13:52:18.664Z,7.72
2022-11-28T13:55:40.718Z,8.00
2022-11-28T13:59:02.767Z,7.20
2022-11-28T14:02:21.702Z,7.43
2022-11-28T14:05:34.009Z,7.75
2022-11-28T14:08:41.247Z,7.35
2022-11-28T14:11:49.922Z,6.70
2022-11-28T14:15:18.740Z,6.25
2022-11-28T14:18:57.736Z,6.85
2022-11-28T14:22:05.684Z,6.70
2022-11-28T14:25:26.474Z,7.07
2022-11-28T14:28:36.748Z,6.60
2022-11-28T14:32:06.672Z,6.85
2022-11-28T14:35:39.536Z,7.20
2022-11-28T14:38:44.114Z,6.28
2022-11-28T14:42:06.712Z,6.97
2022-11-28T14:45:33.488Z,7.10
2022-11-28T14:48:42.051Z,7.65
2022-11-28T14:51:49.708Z,7.22
2022-11-28T14:54:54.832Z,7.03
2022-11-28T14:58:01.643Z,7.43
2022-11-28T15:01:13.278Z,7.43
2022-11-28T15:04:45.892Z,7.18
2022-11-28T15:08:07.744Z,7.90
2022-11-28T15:11:30.446Z,7.90
2022-11-28T15:14:35.110Z,7.88
2022-11-28T15:17:41.501Z,7.72
2022-11-28T15:20:53.894Z,8.13
2022-11-28T15:23:57.971Z,7.93
2022-11-28T15:27:08.141Z,7.88
2022-11-28T15:30:20.710Z,7.93
2022-11-28T15:33:26.429Z,7.88
2022-11-28T15:36:30.655Z,8.98
2022-11-28T15:39:40.268Z,8.27
2022-11-28T15:42:48.702Z,8.25
2022-11-28T15:45:58.492Z,8.55
2022-11-28T15:49:03.938Z,8.43
2022-11-28T15:52:17.454Z,8.18
2022-11-28T15:55:22.107Z,9.43
2022-11-28T15:58:29.194Z,8.88
2022-11-28T16:01:33.652Z,9.00
2022-11-28T16:04:38.277Z,8.57
2022-11-28T16:07:43.920Z,8.70
2022-11-28T16:10:48.082Z,9.85
2022-11-28T16:13:55.819Z,9.00
2022-11-28T16:17:02.563Z,8.45
2022-11-28T16:20:06.955Z,8.75
2022-11-28T16:23:19.433Z,9.40
2022-11-28T16:26:35.424Z,8.73
2022-11-28T16:29:45.439Z,8.85
2022-11-28T16:32:50.998Z,8.90
2022-11-28T16:36:08.865Z,8.68
2022-11-28T16:39:17.232Z,8.98
2022-11-28T16:42:21.350Z,8.75
2022-11-28T16:45:27.266Z,9.35
2022-11-28T16:48:35.356Z,9.15
2022-11-28T16:51:41.203Z,9.27
2022-11-28T16:54:45.224Z,8.88
2022-11-28T16:57:57.967Z,8.70
2022-11-28T17:01:02.651Z,9.00
2022-11-28T17:04:18.239Z,9.32
2022-11-28T17:07:23.986Z,8.63
2022-11-28T17:10:28.392Z,8.95
2022-11-28T17:13:32.413Z,9.10
2022-11-28T17:16:37.609Z,8.95
2022-11-28T17:19:42.442Z,8.82
2022-11-28T17:22:47.816Z,8.80
2022-11-28T17:25:52.367Z,9.23
2022-11-28T17:28:58.734Z,8.80
2022-11-28T17:32:03.506Z,8.73
2022-11-28T17:35:24.691Z,8.98
2022-11-28T17:38:31.920Z,9.23
2022-11-28T17:41:36.351Z,9.65
2022-11-28T17:44:40.846Z,9.75
2022-11-28T17:47:45.732Z,9.25
2022-11-28T17:50:50.992Z,9.40
2022-11-28T17:53:54.967Z,8.52
2022-11-28T17:56:58.996Z,9.60
2022-11-28T18:00:07.933Z,9.73
2022-11-28T18:03:13.615Z,9.77
2022-11-28T18:06:18.138Z,9.82
2022-11-28T18:09:22.466Z,9.98
2022-11-28T18:12:26.895Z,9.60
2022-11-28T18:15:32.618Z,9.77
2022-11-28T18:18:37.514Z,9.90
2022-11-28T18:21:41.541Z,9.85
2022-11-28T18:24:45.801Z,9.45
2022-11-28T18:27:50.341Z,10.23
2022-11-28T18:30:54.549Z,10.38
2022-11-28T18:34:04.000Z,9.82
2022-11-28T18:37:08.420Z,10.40
2022-11-28T18:40:12.486Z,10.07
2022-11-28T18:43:16.383Z,10.93
2022-11-28T18:46:20.853Z,11.10
2022-11-28T18:49:25.003Z,11.23
2022-11-28T18:52:29.263Z,10.95
2022-11-28T18:55:33.402Z,10.93
2022-11-28T18:58:40.371Z,11.48
2022-11-28T19:01:44.684Z,11.57
2022-11-28T19:04:48.914Z,11.60
2022-11-28T19:07:53.392Z,11.65
2022-11-28T19:11:00.955Z,11.23
2022-11-28T19:14:06.789Z,12.23
2022-11-28T19:17:12.145Z,11.27
2022-11-28T19:20:16.758Z,11.52
2022-11-28T19:23:20.623Z,12.70
2022-11-28T19:26:26.638Z,11.43
2022-11-28T19:29:31.182Z,11.98
2022-11-28T19:32:36.265Z,12.05
2022-11-28T19:35:40.332Z,11.82
2022-11-28T19:38:44.615Z,12.10
2022-11-28T19:41:50.081Z,13.18
2022-11-28T19:44:54.515Z,11.65
2022-11-28T19:47:58.859Z,11.85
2022-11-28T19:51:04.002Z,11.55
2022-11-28T19:54:08.510Z,11.18
2022-11-28T19:57:12.792Z,11.85
2022-11-28T20:00:18.149Z,12.75
2022-11-28T20:03:22.007Z,12.15
2022-11-28T20:06:28.966Z,11.90
2022-11-28T20:09:32.826Z,11.88
2022-11-28T20:12:37.066Z,12.07
2022-11-28T20:15:41.443Z,13.20
2022-11-28T20:18:45.919Z,12.55
2022-11-28T20:21:50.090Z,13.32
2022-11-28T20:24:54.246Z,12.90
2022-11-28T20:27:58.442Z,14.25
2022-11-28T20:31:03.031Z,13.10
2022-11-28T20:34:07.114Z,12.73
2022-11-28T20:37:11.681Z,14.18
2022-11-28T20:40:15.908Z,13.73
2022-11-28T20:43:21.205Z,12.57
2022-11-28T20:46:28.313Z,13.45
2022-11-28T20:49:32.427Z,14.35
2022-11-28T20:52:36.662Z,13.73
2022-11-28T20:55:40.860Z,14.45
2022-11-28T20:58:45.440Z,15.18
2022-11-28T21:01:49.959Z,13.90
2022-11-28T21:04:53.883Z,14.55
2022-11-28T21:07:57.966Z,14.27
2022-11-28T21:11:07.642Z,15.15
2022-11-28T21:14:11.886Z,14.85
2022-11-28T21:17:15.646Z,14.35
2022-11-28T21:20:19.650Z,14.10
2022-11-28T21:23:23.622Z,15.32
2022-11-28T21:26:30.591Z,15.38
2022-11-28T21:29:35.064Z,14.82
2022-11-28T21:32:39.244Z,15.10
2022-11-28T21:35:43.311Z,15.70
2022-11-28T21:38:51.871Z,15.77
2022-11-28T21:41:55.727Z,15.38
2022-11-28T21:45:00.023Z,15.27
2022-11-28T21:48:04.280Z,14.40
2022-11-28T21:51:15.418Z,15.07
2022-11-28T21:54:19.241Z,15.35
2022-11-28T21:57:23.181Z,14.80
2022-11-28T22:00:52.050Z,15.07
2022-11-28T22:06:54.688Z,15.77
2022-11-28T22:09:58.744Z,16.20
2022-11-28T22:13:03.015Z,15.27
2022-11-28T22:16:16.185Z,16.33
2022-11-28T22:19:20.794Z,15.95
2022-11-28T22:22:27.423Z,15.82
2022-11-28T22:25:31.675Z,15.85
2022-11-28T22:28:37.112Z,15.88
2022-11-28T22:31:41.042Z,15.77
2022-11-28T22:34:46.210Z,16.77
2022-11-28T22:37:53.234Z,16.30
2022-11-28T22:40:57.941Z,16.73
2022-11-28T22:44:03.854Z,16.40
2022-11-28T22:47:08.139Z,16.73
2022-11-28T22:50:11.956Z,16.42
2022-11-28T22:53:16.587Z,15.50
2022-11-28T22:56:20.799Z,16.70
2022-11-28T22:59:25.235Z,16.50
2022-11-28T23:02:29.469Z,16.38
2022-11-28T23:05:33.773Z,16.33
2022-11-28T23:08:38.494Z,16.90
2022-11-28T23:11:42.946Z,16.60
2022-11-28T23:14:48.618Z,16.25
2022-11-28T23:17:52.526Z,16.58
2022-11-28T23:20:56.329Z,16.75
2022-11-28T23:24:00.993Z,16.80
2022-11-28T23:27:05.171Z,16.42
2022-11-28T23:30:09.406Z,16.15
2022-11-28T23:33:13.266Z,16.50
2022-11-28T23:36:21.731Z,16.63
2022-11-28T23:39:25.821Z,16.85
2022-11-28T23:42:30.207Z,16.67
2022-11-28T23:45:34.323Z,17.33
2022-11-28T23:48:39.161Z,16.65
2022-11-28T23:51:43.179Z,17.40
2022-11-28T23:54:47.227Z,17.40
2022-11-28T23:57:51.265Z,17.05
